sensor_id;sensor_type;location;lat;lon;timestamp;temperature;humidity
28484;DHT22;15704;48.834;8.736;2024-02-04T00:02:12;12.00;93.00
28484;DHT22;15704;48.834;8.736;2024-02-04T00:04:41;12.10;93.00
28484;DHT22;15704;48.834;8.736;2024-02-04T00:07:08;12.00;93.00
28484;DHT22;15704;48.834;8.736;2024-02-04T00:09:35;12.00;93.00
28484;DHT22;15704;48.834;8.736;2024-02-04T00:12:03;12.00;93.00
28484;DHT22;15704;48.834;8.736;2024-02-04T00:14:30;12.00;93.10
28484;DHT22;15704;48.834;8.736;2024-02-04T00:16:58;12.00;93.10
28484;DHT22;15704;48.834;8.736;2024-02-04T00:19:25;12.00;93.10
28484;DHT22;15704;48.834;8.736;2024-02-04T00:21:52;12.00;93.10
28484;DHT22;15704;48.834;8.736;2024-02-04T00:24:19;12.00;93.10
28484;DHT22;15704;48.834;8.736;2024-02-04T00:26:46;12.00;93.10
28484;DHT22;15704;48.834;8.736;2024-02-04T00:29:13;12.00;93.10
28484;DHT22;15704;48.834;8.736;2024-02-04T00:31:40;12.00;93.10
28484;DHT22;15704;48.834;8.736;2024-02-04T00:34:06;12.00;93.00
28484;DHT22;15704;48.834;8.736;2024-02-04T00:36:33;12.00;93.00
28484;DHT22;15704;48.834;8.736;2024-02-04T00:39:00;12.00;93.00
28484;DHT22;15704;48.834;8.736;2024-02-04T00:41:27;12.00;93.00
28484;DHT22;15704;48.834;8.736;2024-02-04T00:43:54;11.90;93.00
28484;DHT22;15704;48.834;8.736;2024-02-04T00:46:20;12.00;93.10
28484;DHT22;15704;48.834;8.736;2024-02-04T00:48:47;12.00;93.10
28484;DHT22;15704;48.834;8.736;2024-02-04T00:51:14;12.00;93.00
28484;DHT22;15704;48.834;8.736;2024-02-04T00:53:44;12.00;93.10
28484;DHT22;15704;48.834;8.736;2024-02-04T00:56:10;12.00;93.10
28484;DHT22;15704;48.834;8.736;2024-02-04T00:58:38;12.00;93.10
28484;DHT22;15704;48.834;8.736;2024-02-04T01:01:05;11.90;93.10
28484;DHT22;15704;48.834;8.736;2024-02-04T01:03:32;11.90;93.10
28484;DHT22;15704;48.834;8.736;2024-02-04T01:05:59;11.90;93.10
28484;DHT22;15704;48.834;8.736;2024-02-04T01:08:26;11.90;93.10
28484;DHT22;15704;48.834;8.736;2024-02-04T01:10:53;11.90;93.10
28484;DHT22;15704;48.834;8.736;2024-02-04T01:13:20;11.90;93.20
28484;DHT22;15704;48.834;8.736;2024-02-04T01:15:47;11.90;93.10
28484;DHT22;15704;48.834;8.736;2024-02-04T01:18:14;11.90;93.20
28484;DHT22;15704;48.834;8.736;2024-02-04T01:20:41;11.90;93.10
28484;DHT22;15704;48.834;8.736;2024-02-04T01:23:08;11.90;93.10
28484;DHT22;15704;48.834;8.736;2024-02-04T01:25:35;11.90;93.10
28484;DHT22;15704;48.834;8.736;2024-02-04T01:28:05;12.00;93.10
28484;DHT22;15704;48.834;8.736;2024-02-04T01:30:32;12.00;93.10
28484;DHT22;15704;48.834;8.736;2024-02-04T01:32:59;12.00;93.10
28484;DHT22;15704;48.834;8.736;2024-02-04T01:35:26;11.90;93.10
28484;DHT22;15704;48.834;8.736;2024-02-04T01:37:52;11.90;93.10
28484;DHT22;15704;48.834;8.736;2024-02-04T01:40:19;11.90;93.10
28484;DHT22;15704;48.834;8.736;2024-02-04T01:42:46;11.90;93.10
28484;DHT22;15704;48.834;8.736;2024-02-04T01:45:13;11.90;93.10
28484;DHT22;15704;48.834;8.736;2024-02-04T01:47:39;11.90;93.10
28484;DHT22;15704;48.834;8.736;2024-02-04T01:50:07;12.00;93.10
28484;DHT22;15704;48.834;8.736;2024-02-04T01:52:36;12.00;93.10
28484;DHT22;15704;48.834;8.736;2024-02-04T01:55:05;12.00;93.10
28484;DHT22;15704;48.834;8.736;2024-02-04T01:57:33;12.00;93.00
28484;DHT22;15704;48.834;8.736;2024-02-04T02:00:03;12.00;93.00
28484;DHT22;15704;48.834;8.736;2024-02-04T02:02:34;12.00;93.00
28484;DHT22;15704;48.834;8.736;2024-02-04T02:05:05;12.00;93.00
28484;DHT22;15704;48.834;8.736;2024-02-04T02:07:32;12.00;93.00
28484;DHT22;15704;48.834;8.736;2024-02-04T02:09:59;12.00;93.00
28484;DHT22;15704;48.834;8.736;2024-02-04T02:12:29;12.00;93.00
28484;DHT22;15704;48.834;8.736;2024-02-04T02:15:24;12.00;93.10
28484;DHT22;15704;48.834;8.736;2024-02-04T02:20:36;12.00;93.00
28484;DHT22;15704;48.834;8.736;2024-02-04T02:23:14;12.00;93.10
28484;DHT22;15704;48.834;8.736;2024-02-04T02:25:41;12.00;93.00
28484;DHT22;15704;48.834;8.736;2024-02-04T02:28:08;12.00;93.00
28484;DHT22;15704;48.834;8.736;2024-02-04T02:30:36;12.00;93.00
28484;DHT22;15704;48.834;8.736;2024-02-04T02:33:04;12.00;93.00
28484;DHT22;15704;48.834;8.736;2024-02-04T02:35:32;12.00;93.00
28484;DHT22;15704;48.834;8.736;2024-02-04T02:38:22;12.00;93.00
28484;DHT22;15704;48.834;8.736;2024-02-04T02:40:59;12.00;93.00
28484;DHT22;15704;48.834;8.736;2024-02-04T02:43:28;12.00;93.10
28484;DHT22;15704;48.834;8.736;2024-02-04T02:45:55;11.90;93.00
28484;DHT22;15704;48.834;8.736;2024-02-04T02:48:22;12.00;93.10
28484;DHT22;15704;48.834;8.736;2024-02-04T02:50:50;12.00;93.10
28484;DHT22;15704;48.834;8.736;2024-02-04T02:53:17;11.90;93.40
28484;DHT22;15704;48.834;8.736;2024-02-04T02:55:46;11.90;93.10
28484;DHT22;15704;48.834;8.736;2024-02-04T02:58:14;11.90;93.10
28484;DHT22;15704;48.834;8.736;2024-02-04T03:00:41;11.90;93.10
28484;DHT22;15704;48.834;8.736;2024-02-04T03:03:08;11.90;93.10
28484;DHT22;15704;48.834;8.736;2024-02-04T03:05:35;11.90;93.10
28484;DHT22;15704;48.834;8.736;2024-02-04T03:08:02;11.90;93.20
28484;DHT22;15704;48.834;8.736;2024-02-04T03:10:29;11.90;93.10
28484;DHT22;15704;48.834;8.736;2024-02-04T03:12:55;11.90;93.10
28484;DHT22;15704;48.834;8.736;2024-02-04T03:15:22;12.00;93.20
28484;DHT22;15704;48.834;8.736;2024-02-04T03:17:49;11.90;93.10
28484;DHT22;15704;48.834;8.736;2024-02-04T03:20:16;11.90;93.10
28484;DHT22;15704;48.834;8.736;2024-02-04T03:22:43;11.90;93.10
28484;DHT22;15704;48.834;8.736;2024-02-04T03:25:11;11.90;93.00
28484;DHT22;15704;48.834;8.736;2024-02-04T03:27:39;11.90;93.00
28484;DHT22;15704;48.834;8.736;2024-02-04T03:30:07;12.00;93.00
28484;DHT22;15704;48.834;8.736;2024-02-04T03:32:34;11.90;93.00
28484;DHT22;15704;48.834;8.736;2024-02-04T03:35:01;11.90;93.00
28484;DHT22;15704;48.834;8.736;2024-02-04T03:37:29;11.90;93.00
28484;DHT22;15704;48.834;8.736;2024-02-04T03:39:56;12.00;93.10
28484;DHT22;15704;48.834;8.736;2024-02-04T03:42:23;12.00;93.10
28484;DHT22;15704;48.834;8.736;2024-02-04T03:44:49;11.90;93.00
28484;DHT22;15704;48.834;8.736;2024-02-04T03:47:16;11.90;93.00
28484;DHT22;15704;48.834;8.736;2024-02-04T03:49:43;11.90;93.00
28484;DHT22;15704;48.834;8.736;2024-02-04T03:52:10;11.90;93.00
28484;DHT22;15704;48.834;8.736;2024-02-04T03:54:37;12.00;93.00
28484;DHT22;15704;48.834;8.736;2024-02-04T03:57:04;12.00;93.00
28484;DHT22;15704;48.834;8.736;2024-02-04T03:59:31;12.00;93.00
28484;DHT22;15704;48.834;8.736;2024-02-04T04:01:57;12.00;93.00
28484;DHT22;15704;48.834;8.736;2024-02-04T04:04:24;11.90;93.00
28484;DHT22;15704;48.834;8.736;2024-02-04T04:06:53;11.90;93.00
28484;DHT22;15704;48.834;8.736;2024-02-04T04:09:22;12.00;93.00
28484;DHT22;15704;48.834;8.736;2024-02-04T04:11:49;11.90;93.00
28484;DHT22;15704;48.834;8.736;2024-02-04T04:14:16;11.90;93.00
28484;DHT22;15704;48.834;8.736;2024-02-04T04:16:43;12.00;93.00
28484;DHT22;15704;48.834;8.736;2024-02-04T04:19:10;12.00;93.00
28484;DHT22;15704;48.834;8.736;2024-02-04T04:21:37;12.00;93.00
28484;DHT22;15704;48.834;8.736;2024-02-04T04:24:05;12.00;93.00
28484;DHT22;15704;48.834;8.736;2024-02-04T04:26:31;12.00;93.00
28484;DHT22;15704;48.834;8.736;2024-02-04T04:29:00;12.00;93.00
28484;DHT22;15704;48.834;8.736;2024-02-04T04:31:26;12.00;93.00
28484;DHT22;15704;48.834;8.736;2024-02-04T04:33:53;12.00;93.00
28484;DHT22;15704;48.834;8.736;2024-02-04T04:36:20;12.00;93.00
28484;DHT22;15704;48.834;8.736;2024-02-04T04:38:47;12.00;93.00
28484;DHT22;15704;48.834;8.736;2024-02-04T04:41:17;12.00;93.00
28484;DHT22;15704;48.834;8.736;2024-02-04T04:43:43;11.90;93.00
28484;DHT22;15704;48.834;8.736;2024-02-04T04:46:10;12.00;93.00
28484;DHT22;15704;48.834;8.736;2024-02-04T04:48:37;11.90;93.00
28484;DHT22;15704;48.834;8.736;2024-02-04T04:51:04;12.00;93.00
28484;DHT22;15704;48.834;8.736;2024-02-04T04:53:33;12.00;93.00
28484;DHT22;15704;48.834;8.736;2024-02-04T04:56:00;12.00;93.00
28484;DHT22;15704;48.834;8.736;2024-02-04T04:58:27;12.00;93.00
28484;DHT22;15704;48.834;8.736;2024-02-04T05:00:54;12.00;93.00
28484;DHT22;15704;48.834;8.736;2024-02-04T05:03:21;12.00;93.00
28484;DHT22;15704;48.834;8.736;2024-02-04T05:05:48;12.00;93.00
28484;DHT22;15704;48.834;8.736;2024-02-04T05:08:15;12.00;93.00
28484;DHT22;15704;48.834;8.736;2024-02-04T05:10:42;12.00;93.00
28484;DHT22;15704;48.834;8.736;2024-02-04T05:13:09;12.00;93.00
28484;DHT22;15704;48.834;8.736;2024-02-04T05:15:36;11.90;93.00
28484;DHT22;15704;48.834;8.736;2024-02-04T05:18:03;11.90;93.00
28484;DHT22;15704;48.834;8.736;2024-02-04T05:20:31;11.90;93.00
28484;DHT22;15704;48.834;8.736;2024-02-04T05:22:57;12.00;93.00
28484;DHT22;15704;48.834;8.736;2024-02-04T05:25:24;12.00;93.00
28484;DHT22;15704;48.834;8.736;2024-02-04T05:27:52;12.00;93.00
28484;DHT22;15704;48.834;8.736;2024-02-04T05:30:19;12.00;93.00
28484;DHT22;15704;48.834;8.736;2024-02-04T05:32:46;12.00;93.00
28484;DHT22;15704;48.834;8.736;2024-02-04T05:35:12;12.00;93.00
28484;DHT22;15704;48.834;8.736;2024-02-04T05:37:39;12.00;93.00
28484;DHT22;15704;48.834;8.736;2024-02-04T05:40:07;12.00;93.00
28484;DHT22;15704;48.834;8.736;2024-02-04T05:42:34;12.00;93.00
28484;DHT22;15704;48.834;8.736;2024-02-04T05:45:02;12.00;93.00
28484;DHT22;15704;48.834;8.736;2024-02-04T05:47:29;12.00;93.00
28484;DHT22;15704;48.834;8.736;2024-02-04T05:49:56;12.00;93.00
28484;DHT22;15704;48.834;8.736;2024-02-04T05:52:23;11.90;93.00
28484;DHT22;15704;48.834;8.736;2024-02-04T05:54:50;12.00;93.00
28484;DHT22;15704;48.834;8.736;2024-02-04T05:57:16;12.00;93.00
28484;DHT22;15704;48.834;8.736;2024-02-04T05:59:43;11.90;93.00
28484;DHT22;15704;48.834;8.736;2024-02-04T06:02:11;11.90;92.90
28484;DHT22;15704;48.834;8.736;2024-02-04T06:04:38;12.00;93.00
28484;DHT22;15704;48.834;8.736;2024-02-04T06:07:06;12.00;93.00
28484;DHT22;15704;48.834;8.736;2024-02-04T06:09:33;12.00;93.00
28484;DHT22;15704;48.834;8.736;2024-02-04T06:12:00;12.00;93.00
28484;DHT22;15704;48.834;8.736;2024-02-04T06:14:27;12.00;93.00
28484;DHT22;15704;48.834;8.736;2024-02-04T06:16:54;11.90;93.00
28484;DHT22;15704;48.834;8.736;2024-02-04T06:19:20;11.90;93.00
28484;DHT22;15704;48.834;8.736;2024-02-04T06:21:47;11.90;93.00
28484;DHT22;15704;48.834;8.736;2024-02-04T06:24:14;12.00;93.00
28484;DHT22;15704;48.834;8.736;2024-02-04T06:26:41;11.90;93.00
28484;DHT22;15704;48.834;8.736;2024-02-04T06:29:08;12.00;93.00
28484;DHT22;15704;48.834;8.736;2024-02-04T06:31:35;12.00;93.00
28484;DHT22;15704;48.834;8.736;2024-02-04T06:34:01;12.00;93.00
28484;DHT22;15704;48.834;8.736;2024-02-04T06:36:28;12.00;93.00
28484;DHT22;15704;48.834;8.736;2024-02-04T06:38:55;12.00;93.00
28484;DHT22;15704;48.834;8.736;2024-02-04T06:41:22;12.00;93.00
28484;DHT22;15704;48.834;8.736;2024-02-04T06:43:49;12.00;93.00
28484;DHT22;15704;48.834;8.736;2024-02-04T06:46:24;12.00;93.00
28484;DHT22;15704;48.834;8.736;2024-02-04T06:48:51;12.00;93.00
28484;DHT22;15704;48.834;8.736;2024-02-04T06:51:18;11.90;93.00
28484;DHT22;15704;48.834;8.736;2024-02-04T06:53:45;12.00;93.00
28484;DHT22;15704;48.834;8.736;2024-02-04T06:56:12;12.00;93.00
28484;DHT22;15704;48.834;8.736;2024-02-04T06:58:39;11.90;93.00
28484;DHT22;15704;48.834;8.736;2024-02-04T07:01:06;12.00;93.00
28484;DHT22;15704;48.834;8.736;2024-02-04T07:03:33;12.00;93.00
28484;DHT22;15704;48.834;8.736;2024-02-04T07:06:00;12.00;93.00
28484;DHT22;15704;48.834;8.736;2024-02-04T07:08:27;12.00;93.00
28484;DHT22;15704;48.834;8.736;2024-02-04T07:10:54;12.00;93.00
28484;DHT22;15704;48.834;8.736;2024-02-04T07:13:25;12.00;93.00
28484;DHT22;15704;48.834;8.736;2024-02-04T07:15:52;12.00;93.00
28484;DHT22;15704;48.834;8.736;2024-02-04T07:18:19;12.00;93.00
28484;DHT22;15704;48.834;8.736;2024-02-04T07:20:48;11.90;93.00
28484;DHT22;15704;48.834;8.736;2024-02-04T07:23:15;11.90;93.00
28484;DHT22;15704;48.834;8.736;2024-02-04T07:25:42;12.00;93.00
28484;DHT22;15704;48.834;8.736;2024-02-04T07:28:09;11.90;93.00
28484;DHT22;15704;48.834;8.736;2024-02-04T07:30:36;12.00;93.00
28484;DHT22;15704;48.834;8.736;2024-02-04T07:33:03;11.90;93.00
28484;DHT22;15704;48.834;8.736;2024-02-04T07:35:30;12.00;93.00
28484;DHT22;15704;48.834;8.736;2024-02-04T07:37:57;12.00;93.00
28484;DHT22;15704;48.834;8.736;2024-02-04T07:40:23;12.00;93.00
28484;DHT22;15704;48.834;8.736;2024-02-04T07:42:50;12.00;93.00
28484;DHT22;15704;48.834;8.736;2024-02-04T07:45:18;11.90;93.00
28484;DHT22;15704;48.834;8.736;2024-02-04T07:47:44;11.90;93.00
28484;DHT22;15704;48.834;8.736;2024-02-04T07:50:11;11.90;93.00
28484;DHT22;15704;48.834;8.736;2024-02-04T07:52:38;11.90;93.00
28484;DHT22;15704;48.834;8.736;2024-02-04T07:55:10;11.90;93.00
28484;DHT22;15704;48.834;8.736;2024-02-04T07:57:37;11.90;93.00
28484;DHT22;15704;48.834;8.736;2024-02-04T08:00:04;11.90;93.00
28484;DHT22;15704;48.834;8.736;2024-02-04T08:02:32;11.90;93.00
28484;DHT22;15704;48.834;8.736;2024-02-04T08:04:58;11.90;93.00
28484;DHT22;15704;48.834;8.736;2024-02-04T08:07:26;11.90;93.00
28484;DHT22;15704;48.834;8.736;2024-02-04T08:09:53;11.90;93.00
28484;DHT22;15704;48.834;8.736;2024-02-04T08:12:20;12.00;93.00
28484;DHT22;15704;48.834;8.736;2024-02-04T08:14:46;12.00;93.00
28484;DHT22;15704;48.834;8.736;2024-02-04T08:17:13;11.90;93.00
28484;DHT22;15704;48.834;8.736;2024-02-04T08:19:41;11.90;93.00
28484;DHT22;15704;48.834;8.736;2024-02-04T08:22:08;11.90;93.00
28484;DHT22;15704;48.834;8.736;2024-02-04T08:24:37;11.90;93.00
28484;DHT22;15704;48.834;8.736;2024-02-04T08:27:04;11.90;93.00
28484;DHT22;15704;48.834;8.736;2024-02-04T08:29:31;11.90;93.00
28484;DHT22;15704;48.834;8.736;2024-02-04T08:31:58;11.90;93.00
28484;DHT22;15704;48.834;8.736;2024-02-04T08:34:25;11.90;93.00
28484;DHT22;15704;48.834;8.736;2024-02-04T08:36:52;11.90;93.00
28484;DHT22;15704;48.834;8.736;2024-02-04T08:39:20;11.90;93.00
28484;DHT22;15704;48.834;8.736;2024-02-04T08:41:47;11.90;93.00
28484;DHT22;15704;48.834;8.736;2024-02-04T08:44:14;12.00;93.00
28484;DHT22;15704;48.834;8.736;2024-02-04T08:46:57;12.00;93.00
28484;DHT22;15704;48.834;8.736;2024-02-04T08:49:26;11.90;93.00
28484;DHT22;15704;48.834;8.736;2024-02-04T08:51:53;11.90;93.00
28484;DHT22;15704;48.834;8.736;2024-02-04T08:54:20;12.00;93.00
28484;DHT22;15704;48.834;8.736;2024-02-04T08:56:47;12.00;93.00
28484;DHT22;15704;48.834;8.736;2024-02-04T08:59:13;11.90;93.00
28484;DHT22;15704;48.834;8.736;2024-02-04T09:01:40;12.00;93.00
28484;DHT22;15704;48.834;8.736;2024-02-04T09:04:07;12.00;93.00
28484;DHT22;15704;48.834;8.736;2024-02-04T09:06:34;12.00;93.00
28484;DHT22;15704;48.834;8.736;2024-02-04T09:09:01;12.00;92.90
28484;DHT22;15704;48.834;8.736;2024-02-04T09:11:28;12.00;92.90
28484;DHT22;15704;48.834;8.736;2024-02-04T09:13:55;12.00;92.90
28484;DHT22;15704;48.834;8.736;2024-02-04T09:16:22;12.00;92.90
28484;DHT22;15704;48.834;8.736;2024-02-04T09:18:49;12.10;92.90
28484;DHT22;15704;48.834;8.736;2024-02-04T09:21:16;12.10;92.80
28484;DHT22;15704;48.834;8.736;2024-02-04T09:23:43;12.10;92.80
28484;DHT22;15704;48.834;8.736;2024-02-04T09:26:10;12.10;92.70
28484;DHT22;15704;48.834;8.736;2024-02-04T09:28:44;12.20;92.80
28484;DHT22;15704;48.834;8.736;2024-02-04T09:31:11;12.20;92.70
28484;DHT22;15704;48.834;8.736;2024-02-04T09:33:39;12.10;92.70
28484;DHT22;15704;48.834;8.736;2024-02-04T09:36:07;12.10;92.70
28484;DHT22;15704;48.834;8.736;2024-02-04T09:38:34;12.20;92.80
28484;DHT22;15704;48.834;8.736;2024-02-04T09:41:01;12.10;92.70
28484;DHT22;15704;48.834;8.736;2024-02-04T09:43:35;12.10;92.80
28484;DHT22;15704;48.834;8.736;2024-02-04T09:46:04;12.10;92.80
28484;DHT22;15704;48.834;8.736;2024-02-04T09:48:32;12.10;92.80
28484;DHT22;15704;48.834;8.736;2024-02-04T09:51:00;12.10;92.80
28484;DHT22;15704;48.834;8.736;2024-02-04T09:53:35;12.10;92.80
28484;DHT22;15704;48.834;8.736;2024-02-04T09:56:03;12.10;92.80
28484;DHT22;15704;48.834;8.736;2024-02-04T09:58:33;12.20;92.70
28484;DHT22;15704;48.834;8.736;2024-02-04T10:01:00;12.20;92.70
28484;DHT22;15704;48.834;8.736;2024-02-04T10:03:27;12.20;92.70
28484;DHT22;15704;48.834;8.736;2024-02-04T10:05:55;12.20;92.70
28484;DHT22;15704;48.834;8.736;2024-02-04T10:08:22;12.20;92.70
28484;DHT22;15704;48.834;8.736;2024-02-04T10:10:50;12.20;92.70
28484;DHT22;15704;48.834;8.736;2024-02-04T10:13:17;12.20;92.70
28484;DHT22;15704;48.834;8.736;2024-02-04T10:15:44;12.20;92.70
28484;DHT22;15704;48.834;8.736;2024-02-04T10:18:11;12.10;92.70
28484;DHT22;15704;48.834;8.736;2024-02-04T10:20:38;12.20;92.70
28484;DHT22;15704;48.834;8.736;2024-02-04T10:23:05;12.20;92.70
28484;DHT22;15704;48.834;8.736;2024-02-04T10:25:32;12.20;92.70
28484;DHT22;15704;48.834;8.736;2024-02-04T10:27:59;12.20;92.70
28484;DHT22;15704;48.834;8.736;2024-02-04T10:30:29;12.20;92.70
28484;DHT22;15704;48.834;8.736;2024-02-04T10:32:59;12.10;92.70
28484;DHT22;15704;48.834;8.736;2024-02-04T10:35:26;12.20;92.70
28484;DHT22;15704;48.834;8.736;2024-02-04T10:37:53;12.20;92.70
28484;DHT22;15704;48.834;8.736;2024-02-04T10:40:19;12.20;92.70
28484;DHT22;15704;48.834;8.736;2024-02-04T10:42:46;12.20;92.80
28484;DHT22;15704;48.834;8.736;2024-02-04T10:45:17;12.20;92.80
28484;DHT22;15704;48.834;8.736;2024-02-04T10:47:53;12.20;92.80
28484;DHT22;15704;48.834;8.736;2024-02-04T10:50:24;12.20;92.80
28484;DHT22;15704;48.834;8.736;2024-02-04T10:52:52;12.10;92.80
28484;DHT22;15704;48.834;8.736;2024-02-04T10:55:25;12.10;92.80
28484;DHT22;15704;48.834;8.736;2024-02-04T10:57:54;12.20;92.80
28484;DHT22;15704;48.834;8.736;2024-02-04T11:00:21;12.10;92.80
28484;DHT22;15704;48.834;8.736;2024-02-04T11:02:48;12.10;92.80
28484;DHT22;15704;48.834;8.736;2024-02-04T11:05:17;12.10;92.80
28484;DHT22;15704;48.834;8.736;2024-02-04T11:07:44;12.10;92.80
28484;DHT22;15704;48.834;8.736;2024-02-04T11:10:11;12.10;92.90
28484;DHT22;15704;48.834;8.736;2024-02-04T11:12:40;12.10;92.90
28484;DHT22;15704;48.834;8.736;2024-02-04T11:15:10;12.10;92.90
28484;DHT22;15704;48.834;8.736;2024-02-04T11:26:16;11.90;93.10
28484;DHT22;15704;48.834;8.736;2024-02-04T11:28:43;11.90;93.10
28484;DHT22;15704;48.834;8.736;2024-02-04T11:31:14;11.90;93.20
28484;DHT22;15704;48.834;8.736;2024-02-04T11:33:44;11.80;93.20
28484;DHT22;15704;48.834;8.736;2024-02-04T11:36:13;11.80;93.30
28484;DHT22;15704;48.834;8.736;2024-02-04T11:38:41;11.80;93.30
28484;DHT22;15704;48.834;8.736;2024-02-04T11:41:08;11.80;93.30
28484;DHT22;15704;48.834;8.736;2024-02-04T11:43:36;11.80;93.40
28484;DHT22;15704;48.834;8.736;2024-02-04T11:46:05;11.70;93.40
28484;DHT22;15704;48.834;8.736;2024-02-04T11:48:34;11.70;93.50
28484;DHT22;15704;48.834;8.736;2024-02-04T11:51:04;11.70;93.50
28484;DHT22;15704;48.834;8.736;2024-02-04T11:53:33;11.70;93.50
28484;DHT22;15704;48.834;8.736;2024-02-04T11:56:01;11.60;93.50
28484;DHT22;15704;48.834;8.736;2024-02-04T11:58:30;11.60;93.50
28484;DHT22;15704;48.834;8.736;2024-02-04T12:00:57;11.60;93.50
28484;DHT22;15704;48.834;8.736;2024-02-04T12:03:32;11.70;93.50
28484;DHT22;15704;48.834;8.736;2024-02-04T12:06:00;11.60;93.50
28484;DHT22;15704;48.834;8.736;2024-02-04T12:08:28;11.70;93.50
28484;DHT22;15704;48.834;8.736;2024-02-04T12:10:55;11.70;93.50
28484;DHT22;15704;48.834;8.736;2024-02-04T12:13:23;11.70;93.50
28484;DHT22;15704;48.834;8.736;2024-02-04T12:15:51;11.70;93.50
28484;DHT22;15704;48.834;8.736;2024-02-04T12:18:18;11.70;93.40
28484;DHT22;15704;48.834;8.736;2024-02-04T12:20:48;11.80;93.40
28484;DHT22;15704;48.834;8.736;2024-02-04T12:23:17;11.80;93.40
28484;DHT22;15704;48.834;8.736;2024-02-04T12:25:45;11.80;93.30
28484;DHT22;15704;48.834;8.736;2024-02-04T12:28:14;11.80;93.30
28484;DHT22;15704;48.834;8.736;2024-02-04T12:30:41;11.80;93.30
28484;DHT22;15704;48.834;8.736;2024-02-04T12:33:18;11.80;93.30
28484;DHT22;15704;48.834;8.736;2024-02-04T12:35:49;11.80;93.30
28484;DHT22;15704;48.834;8.736;2024-02-04T12:38:17;11.80;93.30
28484;DHT22;15704;48.834;8.736;2024-02-04T12:40:46;11.90;93.30
28484;DHT22;15704;48.834;8.736;2024-02-04T12:43:13;11.90;93.20
28484;DHT22;15704;48.834;8.736;2024-02-04T12:45:41;11.90;93.20
28484;DHT22;15704;48.834;8.736;2024-02-04T12:48:08;11.90;93.20
28484;DHT22;15704;48.834;8.736;2024-02-04T12:50:37;11.90;93.20
28484;DHT22;15704;48.834;8.736;2024-02-04T12:53:08;11.90;93.20
28484;DHT22;15704;48.834;8.736;2024-02-04T12:55:38;12.00;93.20
28484;DHT22;15704;48.834;8.736;2024-02-04T12:58:09;12.00;93.10
28484;DHT22;15704;48.834;8.736;2024-02-04T13:00:38;12.00;93.10
28484;DHT22;15704;48.834;8.736;2024-02-04T13:03:06;12.00;93.00
28484;DHT22;15704;48.834;8.736;2024-02-04T13:05:37;12.00;93.00
28484;DHT22;15704;48.834;8.736;2024-02-04T13:08:04;12.00;93.00
28484;DHT22;15704;48.834;8.736;2024-02-04T13:10:34;12.00;93.00
28484;DHT22;15704;48.834;8.736;2024-02-04T13:13:06;12.00;93.00
28484;DHT22;15704;48.834;8.736;2024-02-04T13:15:41;12.00;93.00
28484;DHT22;15704;48.834;8.736;2024-02-04T13:18:10;12.00;93.00
28484;DHT22;15704;48.834;8.736;2024-02-04T13:20:38;12.10;93.10
28484;DHT22;15704;48.834;8.736;2024-02-04T13:23:10;12.10;93.00
28484;DHT22;15704;48.834;8.736;2024-02-04T13:25:37;12.00;93.00
28484;DHT22;15704;48.834;8.736;2024-02-04T13:28:04;12.00;93.00
28484;DHT22;15704;48.834;8.736;2024-02-04T13:30:32;12.00;93.00
28484;DHT22;15704;48.834;8.736;2024-02-04T13:32:58;12.00;93.00
28484;DHT22;15704;48.834;8.736;2024-02-04T13:35:28;12.00;93.10
28484;DHT22;15704;48.834;8.736;2024-02-04T13:37:55;12.00;93.10
28484;DHT22;15704;48.834;8.736;2024-02-04T13:40:22;12.00;93.10
28484;DHT22;15704;48.834;8.736;2024-02-04T13:42:52;12.00;93.10
28484;DHT22;15704;48.834;8.736;2024-02-04T13:45:19;12.00;93.00
28484;DHT22;15704;48.834;8.736;2024-02-04T13:47:46;12.10;93.10
28484;DHT22;15704;48.834;8.736;2024-02-04T13:50:15;12.00;93.00
28484;DHT22;15704;48.834;8.736;2024-02-04T13:52:42;12.10;93.00
28484;DHT22;15704;48.834;8.736;2024-02-04T13:55:09;12.10;93.00
28484;DHT22;15704;48.834;8.736;2024-02-04T13:57:36;12.10;93.00
28484;DHT22;15704;48.834;8.736;2024-02-04T14:00:04;12.10;93.00
28484;DHT22;15704;48.834;8.736;2024-02-04T14:02:32;12.10;93.00
28484;DHT22;15704;48.834;8.736;2024-02-04T14:04:59;12.10;93.00
28484;DHT22;15704;48.834;8.736;2024-02-04T14:07:26;12.10;93.00
28484;DHT22;15704;48.834;8.736;2024-02-04T14:09:54;12.10;93.00
28484;DHT22;15704;48.834;8.736;2024-02-04T14:12:21;12.10;93.00
28484;DHT22;15704;48.834;8.736;2024-02-04T14:14:47;12.10;93.00
28484;DHT22;15704;48.834;8.736;2024-02-04T14:17:14;12.10;93.00
28484;DHT22;15704;48.834;8.736;2024-02-04T14:19:41;12.10;93.00
28484;DHT22;15704;48.834;8.736;2024-02-04T14:22:08;12.10;93.00
28484;DHT22;15704;48.834;8.736;2024-02-04T14:24:37;12.10;93.00
28484;DHT22;15704;48.834;8.736;2024-02-04T14:27:04;12.20;93.00
28484;DHT22;15704;48.834;8.736;2024-02-04T14:29:31;12.20;92.90
28484;DHT22;15704;48.834;8.736;2024-02-04T14:31:58;12.20;93.00
28484;DHT22;15704;48.834;8.736;2024-02-04T14:34:24;12.20;92.90
28484;DHT22;15704;48.834;8.736;2024-02-04T14:36:52;12.20;92.90
28484;DHT22;15704;48.834;8.736;2024-02-04T14:39:19;12.20;92.90
28484;DHT22;15704;48.834;8.736;2024-02-04T14:41:46;12.20;92.90
28484;DHT22;15704;48.834;8.736;2024-02-04T14:44:15;12.20;92.90
28484;DHT22;15704;48.834;8.736;2024-02-04T14:46:42;12.20;92.90
28484;DHT22;15704;48.834;8.736;2024-02-04T14:49:12;12.20;92.90
28484;DHT22;15704;48.834;8.736;2024-02-04T14:51:39;12.20;92.90
28484;DHT22;15704;48.834;8.736;2024-02-04T14:54:07;12.20;92.90
28484;DHT22;15704;48.834;8.736;2024-02-04T14:56:39;12.20;92.90
28484;DHT22;15704;48.834;8.736;2024-02-04T14:59:10;12.20;92.90
28484;DHT22;15704;48.834;8.736;2024-02-04T15:01:48;12.20;92.90
28484;DHT22;15704;48.834;8.736;2024-02-04T15:04:16;12.20;92.90
28484;DHT22;15704;48.834;8.736;2024-02-04T15:06:43;12.20;92.90
28484;DHT22;15704;48.834;8.736;2024-02-04T15:09:11;12.20;92.90
28484;DHT22;15704;48.834;8.736;2024-02-04T15:11:38;12.20;92.90
28484;DHT22;15704;48.834;8.736;2024-02-04T15:14:05;12.20;92.90
28484;DHT22;15704;48.834;8.736;2024-02-04T15:16:34;12.20;92.90
28484;DHT22;15704;48.834;8.736;2024-02-04T15:19:02;12.20;92.90
28484;DHT22;15704;48.834;8.736;2024-02-04T15:21:29;12.30;92.90
28484;DHT22;15704;48.834;8.736;2024-02-04T15:23:57;12.30;93.30
28484;DHT22;15704;48.834;8.736;2024-02-04T15:26:34;12.30;92.90
28484;DHT22;15704;48.834;8.736;2024-02-04T15:29:03;12.30;92.90
28484;DHT22;15704;48.834;8.736;2024-02-04T15:31:31;12.30;92.90
28484;DHT22;15704;48.834;8.736;2024-02-04T15:34:00;12.30;92.90
28484;DHT22;15704;48.834;8.736;2024-02-04T15:36:29;12.30;92.90
28484;DHT22;15704;48.834;8.736;2024-02-04T15:38:55;12.30;92.90
28484;DHT22;15704;48.834;8.736;2024-02-04T15:41:22;12.30;92.90
28484;DHT22;15704;48.834;8.736;2024-02-04T15:43:49;12.30;92.90
28484;DHT22;15704;48.834;8.736;2024-02-04T15:46:17;12.30;92.90